Time;durP1;ratioP1;P1;durP2;ratioP2;P2;SDS_P1;SDS_P2;PMS_P1;PMS_P2;Temp;Humidity;BMP_temperature;BMP_pressure;BME280_temperature;BME280_humidity;BME280_pressure;Samples;Min_cycle;Max_cycle;Signal;HPM_P1;HPM_P2
2021/03/22 00:01:50;;;;;;;17.87;4.80;;;10.20;45.60;;;;;;5062615;28;20638;-54
2021/03/22 00:04:17;;;;;;;11.17;5.43;;;10.20;45.80;;;;;;5068883;28;20657;-54
2021/03/22 00:06:43;;;;;;;12.73;5.73;;;10.20;46.00;;;;;;5067663;28;20640;-54
2021/03/22 00:09:10;;;;;;;19.47;4.93;;;10.20;46.10;;;;;;5064374;28;22163;-54
2021/03/22 00:11:37;;;;;;;12.00;5.53;;;10.20;46.20;;;;;;5071193;28;20636;-54
2021/03/22 00:14:04;;;;;;;21.30;5.13;;;10.20;46.30;;;;;;5063786;28;20731;-54
2021/03/22 00:16:30;;;;;;;24.33;6.67;;;10.30;46.40;;;;;;5070989;28;20633;-54
2021/03/22 00:18:58;;;;;;;13.90;5.27;;;10.30;46.40;;;;;;5063989;28;20661;-54
2021/03/22 00:21:25;;;;;;;16.00;5.47;;;10.30;46.50;;;;;;5066384;28;20629;-54
2021/03/22 00:23:52;;;;;;;13.00;5.70;;;10.30;46.60;;;;;;5069314;28;20660;-54
2021/03/22 00:26:18;;;;;;;17.63;6.30;;;10.30;46.90;;;;;;5069024;28;21155;-54
2021/03/22 00:28:45;;;;;;;20.33;6.30;;;10.30;47.00;;;;;;5070637;28;20687;-54
2021/03/22 00:31:13;;;;;;;11.50;6.33;;;10.30;47.00;;;;;;5064074;28;20637;-55
2021/03/22 00:33:40;;;;;;;11.33;4.70;;;10.30;47.00;;;;;;5065871;28;20689;-54
2021/03/22 00:36:08;;;;;;;14.93;5.53;;;10.30;47.10;;;;;;5069855;28;20633;-54
2021/03/22 00:38:35;;;;;;;14.60;5.53;;;10.20;47.20;;;;;;5065788;28;20668;-54
2021/03/22 00:41:02;;;;;;;19.73;6.10;;;10.20;47.40;;;;;;5067157;28;20660;-53
2021/03/22 00:43:28;;;;;;;22.40;6.20;;;10.20;47.50;;;;;;5068309;28;20753;-54
2021/03/22 00:45:56;;;;;;;20.57;7.40;;;10.30;47.80;;;;;;5066353;28;20644;-53
2021/03/22 00:48:23;;;;;;;12.60;7.00;;;10.20;47.80;;;;;;5067169;28;20632;-54
2021/03/22 00:50:50;;;;;;;15.73;5.77;;;10.20;47.80;;;;;;5067878;28;20672;-53
2021/03/22 00:53:18;;;;;;;19.07;7.27;;;10.20;47.90;;;;;;5068237;28;20671;-53
2021/03/22 00:55:45;;;;;;;16.87;5.70;;;10.10;48.00;;;;;;5062817;28;21236;-53
2021/03/22 00:58:12;;;;;;;15.47;5.77;;;10.10;48.10;;;;;;5069016;28;20694;-53
2021/03/22 01:00:40;;;;;;;12.30;5.73;;;10.00;48.30;;;;;;5066141;28;20724;-53
2021/03/22 01:03:07;;;;;;;22.83;6.30;;;10.00;48.80;;;;;;5067314;28;20617;-53
2021/03/22 01:05:34;;;;;;;18.30;5.80;;;10.00;49.20;;;;;;5065059;28;20723;-56
2021/03/22 01:08:01;;;;;;;15.97;6.03;;;10.00;49.40;;;;;;5065744;28;20655;-53
2021/03/22 01:10:33;;;;;;;14.17;6.03;;;10.00;49.60;;;;;;5068160;28;20644;-55
2021/03/22 01:13:00;;;;;;;12.93;5.47;;;10.00;49.90;;;;;;5061742;28;21081;-55
2021/03/22 01:15:26;;;;;;;23.67;6.70;;;10.10;49.40;;;;;;5069080;28;21311;-56
2021/03/22 01:17:53;;;;;;;19.33;6.10;;;10.00;49.00;;;;;;5070267;28;21162;-54
2021/03/22 01:20:24;;;;;;;22.53;5.47;;;10.00;48.90;;;;;;5066141;28;20671;-55
2021/03/22 01:22:51;;;;;;;12.10;6.40;;;9.90;49.70;;;;;;5067281;28;20621;-55
2021/03/22 01:25:17;;;;;;;15.23;5.13;;;9.90;49.90;;;;;;5059303;28;20703;-54
2021/03/22 01:27:45;;;;;;;20.67;6.93;;;9.90;49.70;;;;;;5066086;28;21261;-55
2021/03/22 01:30:15;;;;;;;18.53;5.77;;;9.90;49.70;;;;;;5067441;28;20651;-54
2021/03/22 01:32:42;;;;;;;17.37;6.13;;;9.80;49.70;;;;;;5067845;28;20863;-55
2021/03/22 01:35:09;;;;;;;15.53;6.53;;;9.80;49.80;;;;;;5067012;28;20825;-55
2021/03/22 01:37:36;;;;;;;23.57;8.00;;;9.80;49.80;;;;;;5066836;28;20636;-52
2021/03/22 01:40:05;;;;;;;15.20;5.67;;;9.80;49.80;;;;;;5062243;28;20749;-55
2021/03/22 01:42:38;;;;;;;16.57;7.33;;;9.70;49.80;;;;;;5061508;28;20698;-55
2021/03/22 01:45:07;;;;;;;20.20;5.40;;;9.70;50.00;;;;;;5062496;28;20664;-56
2021/03/22 01:47:34;;;;;;;10.90;4.13;;;9.70;50.00;;;;;;5066412;28;20628;-54
2021/03/22 01:50:03;;;;;;;12.43;5.33;;;9.60;50.00;;;;;;5067011;28;20628;-56
2021/03/22 01:52:30;;;;;;;16.67;7.13;;;9.60;49.90;;;;;;5064504;28;20674;-56
2021/03/22 01:54:57;;;;;;;15.77;4.60;;;9.60;50.10;;;;;;5063479;28;20665;-56
2021/03/22 01:57:32;;;;;;;13.60;6.80;;;9.60;50.20;;;;;;5065102;28;20630;-53
2021/03/22 02:00:07;;;;;;;15.67;5.47;;;9.60;50.30;;;;;;5063244;28;20710;-55
2021/03/22 02:02:34;;;;;;;8.37;4.77;;;9.70;50.20;;;;;;5067673;28;20640;-55
2021/03/22 02:05:01;;;;;;;12.57;4.50;;;9.70;50.60;;;;;;5064581;28;20695;-55
2021/03/22 02:07:28;;;;;;;11.30;5.03;;;9.70;50.00;;;;;;5065568;28;20641;-56
2021/03/22 02:09:55;;;;;;;16.03;4.93;;;9.70;50.00;;;;;;5068083;28;20936;-53
2021/03/22 02:12:22;;;;;;;14.97;5.37;;;9.70;50.10;;;;;;5065711;28;20632;-56
2021/03/22 02:14:48;;;;;;;13.13;6.57;;;9.60;50.00;;;;;;5063427;28;20658;-55
2021/03/22 02:17:20;;;;;;;16.03;4.40;;;9.60;50.00;;;;;;5062702;28;20670;-54
2021/03/22 02:20:34;;;;;;;17.57;5.07;;;9.60;50.50;;;;;;5068542;28;20690;-52
2021/03/22 02:23:34;;;;;;;18.37;6.07;;;9.70;50.00;;;;;;5061334;28;20648;-54
2021/03/22 02:26:02;;;;;;;12.20;4.07;;;9.60;50.00;;;;;;5062067;28;20975;-53
2021/03/22 02:29:01;;;;;;;10.07;3.63;;;9.60;49.90;;;;;;5066726;28;20709;-53
2021/03/22 02:32:04;;;;;;;26.27;6.87;;;9.60;50.00;;;;;;5015929;28;20969;-54
2021/03/22 02:34:40;;;;;;;9.03;4.13;;;9.50;50.10;;;;;;5037718;28;20674;-54
2021/03/22 02:37:33;;;;;;;14.20;4.87;;;9.50;50.20;;;;;;5055929;28;20994;-53
2021/03/22 02:40:05;;;;;;;15.07;5.17;;;9.40;50.20;;;;;;5066974;28;20749;-53
2021/03/22 02:42:31;;;;;;;18.50;6.30;;;9.50;50.30;;;;;;5065597;28;21219;-54
2021/03/22 02:44:58;;;;;;;7.83;3.60;;;9.40;50.30;;;;;;5066195;28;20730;-53
2021/03/22 02:47:28;;;;;;;13.00;4.50;;;9.50;50.40;;;;;;5064996;28;20705;-54
2021/03/22 02:49:57;;;;;;;19.20;6.50;;;9.50;50.30;;;;;;5064745;28;20682;-53
2021/03/22 02:52:44;;;;;;;16.10;4.73;;;9.50;50.20;;;;;;5065496;28;20629;-53
2021/03/22 02:55:15;;;;;;;18.27;6.00;;;9.50;50.30;;;;;;5057681;28;21290;-55
2021/03/22 02:57:44;;;;;;;11.30;5.10;;;9.50;50.20;;;;;;5064882;28;21034;-56
2021/03/22 03:00:18;;;;;;;11.33;3.90;;;9.50;50.60;;;;;;5064521;28;20673;-56
2021/03/22 03:02:45;;;;;;;14.10;4.20;;;9.50;49.90;;;;;;5067895;28;20674;-54
2021/03/22 03:05:14;;;;;;;14.10;4.17;;;9.50;50.00;;;;;;5065184;28;20680;-55
2021/03/22 03:07:41;;;;;;;11.17;3.70;;;9.40;50.20;;;;;;5063914;28;20672;-53
2021/03/22 03:10:09;;;;;;;16.00;4.53;;;9.40;50.10;;;;;;5066416;28;20694;-55
2021/03/22 03:12:35;;;;;;;13.13;4.30;;;9.40;50.00;;;;;;5066326;28;20778;-56
2021/03/22 03:15:06;;;;;;;11.00;3.97;;;9.50;50.00;;;;;;5067412;28;20666;-56
2021/03/22 03:17:33;;;;;;;16.37;4.57;;;9.40;49.90;;;;;;5065831;28;20625;-53
2021/03/22 03:20:00;;;;;;;10.73;4.57;;;9.40;49.90;;;;;;5060262;28;20714;-55
2021/03/22 03:22:28;;;;;;;18.97;4.00;;;9.50;49.80;;;;;;5064847;28;20636;-54
2021/03/22 03:24:55;;;;;;;19.93;5.57;;;9.50;49.70;;;;;;5064901;28;20706;-54
2021/03/22 03:27:21;;;;;;;13.17;4.07;;;9.40;49.70;;;;;;5065995;28;20698;-53
2021/03/22 03:29:48;;;;;;;13.80;4.03;;;9.40;49.70;;;;;;5064779;28;21176;-53
2021/03/22 03:32:18;;;;;;;8.13;4.50;;;9.40;49.80;;;;;;5063046;28;20952;-52
2021/03/22 03:34:45;;;;;;;11.73;4.23;;;9.40;49.80;;;;;;5088139;22;21235;-51
2021/03/22 03:37:12;;;;;;;15.70;4.13;;;9.40;50.00;;;;;;5070476;28;20616;-51
2021/03/22 03:39:39;;;;;;;7.20;3.70;;;9.40;49.90;;;;;;5075480;28;20660;-51
2021/03/22 03:42:07;;;;;;;22.20;5.20;;;9.40;49.80;;;;;;5072621;28;21037;-52
2021/03/22 03:44:34;;;;;;;15.87;4.47;;;9.40;49.70;;;;;;5069588;28;20737;-51
2021/03/22 03:47:01;;;;;;;12.63;4.07;;;9.40;49.70;;;;;;5067374;28;20632;-51
2021/03/22 03:49:28;;;;;;;9.73;3.90;;;9.40;49.70;;;;;;5076046;28;20971;-51
2021/03/22 03:51:54;;;;;;;18.33;4.20;;;9.40;49.70;;;;;;5063369;28;21254;-51
2021/03/22 03:54:21;;;;;;;9.10;4.00;;;9.40;49.80;;;;;;5067132;28;20742;-51
2021/03/22 03:56:49;;;;;;;14.90;4.00;;;9.40;49.80;;;;;;5076511;28;21239;-51
2021/03/22 03:59:16;;;;;;;10.30;3.77;;;9.40;49.90;;;;;;5068030;28;20692;-51
2021/03/22 04:01:42;;;;;;;17.43;4.27;;;9.40;49.90;;;;;;5072517;28;20689;-51
2021/03/22 04:04:09;;;;;;;13.77;3.60;;;9.40;49.80;;;;;;5070470;28;20666;-52
2021/03/22 04:06:36;;;;;;;14.77;4.00;;;9.40;49.70;;;;;;5072082;28;20685;-51
2021/03/22 04:09:05;;;;;;;17.20;5.27;;;9.40;49.80;;;;;;5066503;28;20643;-51
2021/03/22 04:11:33;;;;;;;11.53;4.10;;;9.40;49.90;;;;;;5078541;28;20632;-51
2021/03/22 04:14:00;;;;;;;8.20;3.60;;;9.30;49.80;;;;;;5076745;28;21228;-51
2021/03/22 04:16:28;;;;;;;9.47;4.10;;;9.30;50.00;;;;;;5077323;28;20619;-51
2021/03/22 04:18:55;;;;;;;10.80;3.97;;;9.30;50.40;;;;;;5067181;28;20688;-52
2021/03/22 04:21:24;;;;;;;9.33;3.90;;;9.30;50.00;;;;;;5077217;28;20632;-53
2021/03/22 04:23:53;;;;;;;11.60;4.57;;;9.30;50.00;;;;;;5080097;28;20668;-52
2021/03/22 04:26:20;;;;;;;13.33;4.70;;;9.30;50.10;;;;;;5074265;28;20711;-52
2021/03/22 04:28:47;;;;;;;8.43;4.73;;;9.40;50.20;;;;;;5080505;28;20674;-51
2021/03/22 04:31:15;;;;;;;7.27;3.07;;;9.40;50.30;;;;;;5069272;28;20984;-52
2021/03/22 04:33:42;;;;;;;10.57;4.00;;;9.40;50.30;;;;;;5062626;28;21051;-52
2021/03/22 04:36:09;;;;;;;13.00;4.70;;;9.40;50.30;;;;;;5077208;28;21086;-51
2021/03/22 04:38:36;;;;;;;8.50;3.80;;;9.40;50.20;;;;;;5074941;28;20644;-52
2021/03/22 04:41:03;;;;;;;12.30;4.60;;;9.40;50.30;;;;;;5080286;28;20803;-51
2021/03/22 04:43:29;;;;;;;10.70;3.93;;;9.40;50.40;;;;;;5073474;28;20671;-51
2021/03/22 04:45:56;;;;;;;9.90;3.90;;;9.30;50.30;;;;;;5062159;28;20705;-51
2021/03/22 04:48:24;;;;;;;13.30;5.10;;;9.30;50.60;;;;;;5081898;28;20659;-52
2021/03/22 04:50:50;;;;;;;11.60;5.27;;;9.30;50.80;;;;;;5082262;28;21881;-53
2021/03/22 04:53:17;;;;;;;8.23;3.43;;;9.30;50.90;;;;;;5072379;28;20671;-53
2021/03/22 04:55:44;;;;;;;10.53;4.20;;;9.20;51.00;;;;;;5068749;28;20699;-53
2021/03/22 04:58:11;;;;;;;13.37;5.03;;;9.30;51.10;;;;;;5074003;28;20672;-53
2021/03/22 05:00:40;;;;;;;11.93;4.67;;;9.20;51.10;;;;;;5075341;28;20660;-51
2021/03/22 05:03:07;;;;;;;14.50;4.63;;;9.20;51.20;;;;;;5073824;28;20714;-51
2021/03/22 05:05:36;;;;;;;11.53;4.43;;;9.20;51.30;;;;;;5074511;28;21295;-52
2021/03/22 05:08:04;;;;;;;18.67;4.40;;;9.20;51.50;;;;;;5080922;28;20683;-52
2021/03/22 05:10:33;;;;;;;12.80;5.03;;;9.20;51.60;;;;;;5069764;28;20667;-50
2021/03/22 05:12:59;;;;;;;9.23;4.33;;;9.10;51.80;;;;;;5069723;28;21156;-50
2021/03/22 05:15:27;;;;;;;8.40;3.33;;;9.00;52.10;;;;;;5076483;28;21023;-53
2021/03/22 05:17:54;;;;;;;19.97;4.90;;;8.90;52.50;;;;;;5081143;28;20649;-51
2021/03/22 05:20:22;;;;;;;12.30;4.70;;;8.80;52.70;;;;;;5069163;28;20692;-51
2021/03/22 05:22:49;;;;;;;19.50;5.40;;;8.80;53.00;;;;;;5080236;28;20763;-52
2021/03/22 05:25:17;;;;;;;8.30;5.37;;;8.80;53.20;;;;;;5072382;28;20688;-53
2021/03/22 05:27:44;;;;;;;11.90;3.93;;;8.80;53.50;;;;;;5064965;28;20656;-51
2021/03/22 05:30:11;;;;;;;12.40;3.40;;;8.70;53.50;;;;;;5073634;28;20620;-52
2021/03/22 05:32:38;;;;;;;7.27;3.30;;;8.70;53.80;;;;;;5076686;28;20621;-51
2021/03/22 05:35:06;;;;;;;12.03;3.53;;;8.60;54.00;;;;;;5076108;28;20702;-51
2021/03/22 05:37:33;;;;;;;11.60;3.30;;;8.60;54.20;;;;;;5070986;28;20659;-52
2021/03/22 05:40:01;;;;;;;12.90;3.50;;;8.70;54.30;;;;;;5066839;28;20695;-52
2021/03/22 05:42:46;;;;;;;21.27;7.40;;;8.80;54.30;;;;;;5066731;28;20663;-54
2021/03/22 05:45:25;;;;;;;9.47;3.73;;;8.80;54.30;;;;;;5080744;28;20676;-52
2021/03/22 05:47:55;;;;;;;12.53;4.00;;;8.80;54.10;;;;;;5078883;28;20652;-52
2021/03/22 05:50:24;;;;;;;14.23;3.90;;;8.80;54.20;;;;;;5077633;28;20636;-52
2021/03/22 05:53:21;;;;;;;10.50;3.93;;;8.80;54.20;;;;;;5070684;28;20682;-52
2021/03/22 05:55:53;;;;;;;9.97;4.53;;;8.70;54.20;;;;;;5058715;28;20663;-52
2021/03/22 05:58:34;;;;;;;7.53;3.83;;;8.70;54.50;;;;;;5071930;28;21004;-53
2021/03/22 06:01:04;;;;;;;15.30;4.20;;;8.70;54.70;;;;;;5070945;28;20686;-52
2021/03/22 06:03:33;;;;;;;10.77;4.73;;;8.70;54.70;;;;;;5084097;28;20670;-52
2021/03/22 06:06:05;;;;;;;12.00;4.17;;;8.70;54.90;;;;;;5068165;28;20687;-51
2021/03/22 06:08:38;;;;;;;15.63;4.07;;;8.70;54.80;;;;;;5074437;28;20678;-51
2021/03/22 06:11:18;;;;;;;12.93;4.20;;;8.70;54.80;;;;;;5078679;28;21202;-52
2021/03/22 06:13:46;;;;;;;13.00;4.40;;;8.60;54.90;;;;;;5062999;28;20657;-52
2021/03/22 06:16:20;;;;;;;8.03;3.70;;;8.60;55.20;;;;;;5065171;28;20750;-52
2021/03/22 06:18:54;;;;;;;13.87;4.00;;;8.70;55.30;;;;;;5063629;28;20666;-51
2021/03/22 06:21:21;;;;;;;8.57;3.33;;;8.70;55.20;;;;;;5079971;28;20686;-51
2021/03/22 06:23:49;;;;;;;11.70;3.73;;;8.70;55.40;;;;;;5064825;28;20667;-52
2021/03/22 06:26:36;;;;;;;12.70;5.10;;;8.70;55.70;;;;;;5072733;28;21102;-52
2021/03/22 06:29:05;;;;;;;10.80;2.97;;;8.70;55.70;;;;;;5076727;28;20714;-52
2021/03/22 06:31:32;;;;;;;12.57;4.17;;;8.70;55.70;;;;;;5073796;28;20643;-51
2021/03/22 06:34:00;;;;;;;9.20;3.27;;;8.80;56.00;;;;;;5074777;28;20667;-54
2021/03/22 06:36:27;;;;;;;6.00;3.27;;;8.80;56.10;;;;;;5070374;28;21027;-52
2021/03/22 06:38:55;;;;;;;10.30;3.80;;;8.80;56.20;;;;;;5073967;28;20670;-51
2021/03/22 06:41:34;;;;;;;15.07;4.57;;;8.80;56.30;;;;;;5072034;28;20687;-52
2021/03/22 06:44:02;;;;;;;9.70;3.60;;;8.80;56.30;;;;;;5068224;28;20660;-53
2021/03/22 06:46:29;;;;;;;16.47;4.50;;;8.90;56.40;;;;;;5074809;28;20665;-53
2021/03/22 06:48:57;;;;;;;10.90;3.60;;;8.90;56.40;;;;;;5068866;28;20672;-51
2021/03/22 06:51:24;;;;;;;6.27;3.90;;;8.90;56.40;;;;;;5070288;28;20640;-52
2021/03/22 06:53:52;;;;;;;9.27;4.10;;;9.00;56.60;;;;;;5062560;28;20643;-52
2021/03/22 06:56:21;;;;;;;13.13;4.40;;;9.00;57.00;;;;;;5070062;28;20640;-52
2021/03/22 06:58:50;;;;;;;8.90;4.20;;;8.90;56.70;;;;;;5068719;28;20684;-53
2021/03/22 07:01:28;;;;;;;9.50;4.30;;;8.90;56.90;;;;;;5069380;28;20753;-52
2021/03/22 07:03:55;;;;;;;9.07;4.43;;;8.90;57.10;;;;;;5065747;28;20632;-52
2021/03/22 07:06:23;;;;;;;12.70;4.67;;;8.90;57.10;;;;;;5070805;28;20671;-52
2021/03/22 07:08:50;;;;;;;13.90;5.20;;;8.90;57.10;;;;;;5078953;28;20624;-51
2021/03/22 07:11:18;;;;;;;14.83;5.20;;;8.90;57.60;;;;;;5064393;28;20625;-53
2021/03/22 07:13:53;;;;;;;8.57;3.90;;;8.90;57.70;;;;;;5076866;28;20670;-51
2021/03/22 07:16:21;;;;;;;11.87;4.43;;;8.90;58.30;;;;;;5073772;28;20640;-52
2021/03/22 07:19:04;;;;;;;11.00;4.60;;;8.90;57.80;;;;;;5082784;28;20671;-51
2021/03/22 07:21:31;;;;;;;16.60;5.50;;;9.00;58.00;;;;;;5067055;28;20706;-51
2021/03/22 07:24:11;;;;;;;14.63;5.63;;;9.00;58.00;;;;;;5076167;28;20662;-52
2021/03/22 07:26:48;;;;;;;6.97;4.00;;;8.90;58.20;;;;;;5060849;28;20665;-51
2021/03/22 07:29:40;;;;;;;11.23;4.97;;;9.00;58.40;;;;;;5072238;28;21250;-52
2021/03/22 07:32:18;;;;;;;12.90;4.70;;;9.00;58.40;;;;;;5066225;28;20654;-53
2021/03/22 07:35:03;;;;;;;12.13;4.90;;;9.00;58.50;;;;;;5073578;28;20672;-52
2021/03/22 07:37:33;;;;;;;10.90;4.80;;;9.10;58.70;;;;;;5065225;28;20656;-53
2021/03/22 07:40:01;;;;;;;8.47;4.73;;;9.10;58.70;;;;;;5069253;28;20679;-53
2021/03/22 07:42:39;;;;;;;10.60;4.37;;;9.20;59.30;;;;;;5082426;28;21065;-52
2021/03/22 07:45:38;;;;;;;8.80;4.53;;;9.20;59.40;;;;;;5068306;28;21236;-52
2021/03/22 07:48:45;;;;;;;9.10;3.80;;;9.20;59.00;;;;;;5068756;28;21179;-53
2021/03/22 07:51:20;;;;;;;12.90;4.83;;;9.20;58.90;;;;;;5071386;28;20616;-51
2021/03/22 07:53:49;;;;;;;9.83;4.80;;;9.20;58.90;;;;;;5078616;28;20690;-53
2021/03/22 07:56:18;;;;;;;7.43;4.67;;;9.20;59.00;;;;;;5075283;28;20636;-53
2021/03/22 07:59:11;;;;;;;11.77;4.00;;;9.20;59.20;;;;;;5068939;28;21185;-53
2021/03/22 08:01:48;;;;;;;7.80;3.90;;;9.20;59.30;;;;;;5070366;28;21125;-52
2021/03/22 08:04:36;;;;;;;12.20;4.27;;;9.20;59.60;;;;;;5079089;28;21173;-52
2021/03/22 08:07:05;;;;;;;7.77;4.70;;;9.20;59.70;;;;;;5068984;28;20622;-52
2021/03/22 08:09:40;;;;;;;9.37;4.50;;;9.30;59.80;;;;;;5078974;28;21191;-52
2021/03/22 08:12:11;;;;;;;8.77;4.80;;;9.30;59.60;;;;;;5080580;28;20619;-51
2021/03/22 08:14:38;;;;;;;9.00;5.07;;;9.40;59.50;;;;;;5079290;28;20644;-51
2021/03/22 08:17:16;;;;;;;9.80;4.50;;;9.40;59.50;;;;;;5073888;28;20733;-51
2021/03/22 08:19:44;;;;;;;7.80;4.00;;;9.40;59.60;;;;;;5075622;28;20667;-51
2021/03/22 08:22:15;;;;;;;8.83;4.17;;;9.30;59.70;;;;;;5076052;28;20625;-52
2021/03/22 08:24:47;;;;;;;7.73;5.30;;;9.30;59.90;;;;;;5079213;28;21224;-52
2021/03/22 08:27:14;;;;;;;6.77;4.27;;;9.30;59.90;;;;;;5081686;28;20674;-51
2021/03/22 08:29:45;;;;;;;10.30;4.97;;;9.40;59.90;;;;;;5076928;28;21050;-51
2021/03/22 08:32:27;;;;;;;9.23;5.63;;;9.50;59.70;;;;;;5080210;28;20660;-51
2021/03/22 08:34:58;;;;;;;13.33;5.70;;;9.50;59.50;;;;;;5071813;28;20702;-51
2021/03/22 08:37:27;;;;;;;7.93;4.43;;;9.40;59.50;;;;;;5073041;28;20660;-52
2021/03/22 08:39:57;;;;;;;6.47;4.60;;;9.50;59.70;;;;;;5077198;28;20652;-51
2021/03/22 08:42:25;;;;;;;10.07;4.63;;;9.40;59.90;;;;;;5081477;28;20678;-51
2021/03/22 08:44:56;;;;;;;7.70;6.13;;;9.50;60.80;;;;;;5064638;28;20682;-52
2021/03/22 08:47:38;;;;;;;12.77;6.57;;;9.60;59.90;;;;;;5084014;28;20650;-52
2021/03/22 08:50:07;;;;;;;6.37;4.37;;;9.60;59.50;;;;;;5066549;28;20637;-51
2021/03/22 08:52:35;;;;;;;7.00;4.30;;;9.50;59.40;;;;;;5068463;28;20710;-52
2021/03/22 08:55:07;;;;;;;6.70;3.83;;;9.50;59.60;;;;;;5070783;28;21286;-53
2021/03/22 08:57:38;;;;;;;8.00;5.10;;;9.50;59.40;;;;;;5063376;28;20737;-51
2021/03/22 09:00:23;;;;;;;6.23;4.10;;;9.50;59.50;;;;;;5084730;28;20644;-53
2021/03/22 09:02:53;;;;;;;10.43;4.60;;;9.60;59.80;;;;;;5082972;28;20660;-53
2021/03/22 09:05:21;;;;;;;6.67;5.00;;;9.70;59.80;;;;;;5070495;28;20705;-54
2021/03/22 09:07:48;;;;;;;8.73;3.73;;;9.80;59.70;;;;;;5076666;28;21331;-52
2021/03/22 09:10:36;;;;;;;6.30;4.50;;;9.90;59.40;;;;;;5081574;28;20639;-52
2021/03/22 09:13:31;;;;;;;7.80;4.30;;;10.00;58.20;;;;;;5073078;28;20624;-52
2021/03/22 09:16:00;;;;;;;9.93;4.43;;;10.00;58.00;;;;;;5072653;28;21321;-52
2021/03/22 09:18:28;;;;;;;8.87;5.00;;;10.10;58.00;;;;;;5068119;28;20629;-52
2021/03/22 09:21:21;;;;;;;7.37;3.80;;;10.20;57.70;;;;;;5074427;28;20695;-52
2021/03/22 09:23:48;;;;;;;7.20;3.20;;;10.20;57.40;;;;;;5061366;28;20661;-52
2021/03/22 09:26:15;;;;;;;5.83;3.37;;;10.30;56.80;;;;;;5070849;28;20660;-51
2021/03/22 09:28:49;;;;;;;8.47;3.93;;;10.30;56.60;;;;;;5086768;28;21164;-53
2021/03/22 09:31:44;;;;;;;8.33;3.43;;;10.40;56.50;;;;;;5069093;28;20656;-53
2021/03/22 09:34:40;;;;;;;8.60;4.13;;;10.40;57.30;;;;;;5079290;22;20707;-54
2021/03/22 09:37:39;;;;;;;5.27;3.77;;;10.40;56.60;;;;;;5056422;27;20636;-54
2021/03/22 09:40:07;;;;;;;9.97;4.57;;;10.50;56.30;;;;;;5113139;27;20619;-56
2021/03/22 09:42:34;;;;;;;5.67;3.77;;;10.60;55.80;;;;;;5118846;27;21139;-56
2021/03/22 09:45:20;;;;;;;7.70;3.33;;;10.70;55.50;;;;;;5111374;27;21071;-56
2021/03/22 09:48:05;;;;;;;9.60;4.10;;;10.70;54.80;;;;;;5091571;27;21203;-54
2021/03/22 09:50:34;;;;;;;4.60;4.00;;;10.70;55.00;;;;;;5088529;28;20620;-52
2021/03/22 09:53:18;;;;;;;4.30;3.30;;;10.70;55.20;;;;;;5080873;28;20636;-52
2021/03/22 09:55:55;;;;;;;6.50;4.07;;;10.70;55.10;;;;;;5087578;28;20661;-55
2021/03/22 09:58:32;;;;;;;5.73;4.10;;;10.70;55.10;;;;;;5105665;28;20643;-53
2021/03/22 10:01:00;;;;;;;7.37;4.37;;;10.70;55.20;;;;;;5070308;28;21229;-54
2021/03/22 10:03:51;;;;;;;5.00;3.87;;;10.60;55.90;;;;;;5070062;28;20966;-54
2021/03/22 10:06:59;;;;;;;5.97;3.50;;;10.50;56.50;;;;;;5078043;28;20657;-56
2021/03/22 10:09:29;;;;;;;5.67;3.47;;;10.50;57.60;;;;;;5045343;28;20629;-56
2021/03/22 10:12:00;;;;;;;12.33;3.70;;;10.40;58.70;;;;;;5070337;28;20640;-54
2021/03/22 10:14:33;;;;;;;8.77;3.73;;;10.30;59.80;;;;;;5073289;28;20783;-55
2021/03/22 10:17:00;;;;;;;6.07;4.10;;;10.40;60.60;;;;;;5070140;28;20631;-55
2021/03/22 10:19:28;;;;;;;6.23;4.50;;;10.50;60.70;;;;;;5069201;28;20667;-55
2021/03/22 10:21:57;;;;;;;5.23;4.33;;;10.60;60.90;;;;;;5070225;28;20730;-54
2021/03/22 10:24:33;;;;;;;12.47;6.00;;;10.70;60.50;;;;;;5076682;28;20700;-53
2021/03/22 10:27:00;;;;;;;3.93;3.43;;;10.80;59.80;;;;;;5083490;28;20716;-52
2021/03/22 10:29:28;;;;;;;3.07;2.77;;;10.90;59.60;;;;;;5088869;28;20675;-54
2021/03/22 10:32:00;;;;;;;9.13;3.27;;;11.00;59.20;;;;;;5090146;28;20669;-55
2021/03/22 10:34:29;;;;;;;4.00;3.10;;;11.10;59.30;;;;;;5080901;28;20799;-52
2021/03/22 10:37:03;;;;;;;4.67;3.27;;;11.20;57.90;;;;;;5093014;28;21102;-53
2021/03/22 10:39:32;;;;;;;4.37;3.30;;;11.20;57.60;;;;;;5110301;27;20704;-55
2021/03/22 10:41:59;;;;;;;5.27;2.77;;;11.30;56.90;;;;;;5110230;28;20683;-53
2021/03/22 10:44:28;;;;;;;2.50;2.30;;;11.20;56.00;;;;;;5094319;28;20660;-53
2021/03/22 10:47:05;;;;;;;3.80;3.10;;;11.20;55.00;;;;;;5068383;28;20726;-54
2021/03/22 10:49:32;;;;;;;5.93;2.83;;;11.20;56.30;;;;;;5069796;28;20655;-55
2021/03/22 10:52:01;;;;;;;6.87;3.70;;;11.20;56.10;;;;;;5069799;28;20628;-54
2021/03/22 10:54:41;;;;;;;3.73;3.23;;;11.20;56.40;;;;;;5069561;28;20693;-55
2021/03/22 10:57:13;;;;;;;5.27;3.60;;;11.20;56.30;;;;;;5086348;28;20659;-54
2021/03/22 10:59:42;;;;;;;6.13;2.93;;;11.30;56.30;;;;;;5083985;28;20724;-53
2021/03/22 11:02:17;;;;;;;5.40;3.50;;;11.30;55.40;;;;;;5103258;28;21213;-55
2021/03/22 11:04:44;;;;;;;3.97;2.93;;;11.30;55.00;;;;;;5092795;28;21079;-54
2021/03/22 11:07:12;;;;;;;3.53;2.73;;;11.30;54.70;;;;;;5090156;28;20624;-56
2021/03/22 11:09:40;;;;;;;3.50;3.20;;;11.30;55.30;;;;;;5069664;28;20661;-55
2021/03/22 11:12:07;;;;;;;3.03;2.80;;;11.30;55.60;;;;;;5069515;28;20621;-53
2021/03/22 11:14:34;;;;;;;4.83;2.90;;;11.30;54.90;;;;;;5073427;28;21184;-54
2021/03/22 11:17:04;;;;;;;4.20;3.10;;;11.40;55.00;;;;;;5071825;28;20653;-54
2021/03/22 11:19:38;;;;;;;4.70;2.60;;;11.40;54.70;;;;;;5068277;28;20629;-52
2021/03/22 11:22:27;;;;;;;4.87;3.20;;;11.30;53.70;;;;;;5068180;28;20657;-52
2021/03/22 11:24:55;;;;;;;4.23;3.13;;;11.30;54.10;;;;;;5083287;28;20695;-52
2021/03/22 11:27:24;;;;;;;2.97;2.60;;;11.20;54.40;;;;;;5077689;28;21263;-54
2021/03/22 11:29:58;;;;;;;4.53;4.03;;;11.20;54.10;;;;;;5073045;28;20700;-53
2021/03/22 11:32:26;;;;;;;4.10;3.33;;;11.20;53.80;;;;;;5073458;28;20633;-52
2021/03/22 11:34:54;;;;;;;12.53;3.90;;;11.10;54.00;;;;;;5075570;28;20667;-55
2021/03/22 11:37:22;;;;;;;3.20;2.60;;;11.10;54.10;;;;;;5073154;28;20690;-55
2021/03/22 11:39:56;;;;;;;6.90;3.73;;;11.10;54.40;;;;;;5072564;28;20629;-55
2021/03/22 11:42:27;;;;;;;5.10;2.90;;;11.10;54.50;;;;;;5072733;28;20693;-54
2021/03/22 11:44:54;;;;;;;6.23;2.70;;;11.10;54.50;;;;;;5072410;28;20696;-53
2021/03/22 11:47:39;;;;;;;4.70;2.87;;;11.10;54.80;;;;;;5071395;28;21104;-53
2021/03/22 11:50:49;;;;;;;3.30;3.00;;;11.10;54.80;;;;;;5072797;28;21273;-53
2021/03/22 11:53:19;;;;;;;4.57;2.30;;;11.20;54.80;;;;;;5071346;28;20664;-56
2021/03/22 11:55:48;;;;;;;4.50;2.60;;;11.30;54.20;;;;;;5072283;28;20727;-55
2021/03/22 11:58:26;;;;;;;4.50;2.40;;;11.30;53.70;;;;;;5072817;28;20621;-55
2021/03/22 12:00:53;;;;;;;6.03;3.70;;;11.30;54.00;;;;;;5072870;28;20660;-52
2021/03/22 12:03:25;;;;;;;3.83;2.83;;;11.40;54.20;;;;;;5078720;28;21039;-56
2021/03/22 12:06:07;;;;;;;2.93;2.60;;;11.50;54.00;;;;;;5087027;28;20686;-53
2021/03/22 12:08:35;;;;;;;5.23;2.97;;;11.50;53.60;;;;;;5112995;28;20684;-53
2021/03/22 12:11:04;;;;;;;4.00;2.67;;;11.50;53.20;;;;;;5082241;28;20734;-53
2021/03/22 12:13:32;;;;;;;5.07;3.17;;;11.50;53.40;;;;;;5072820;28;20656;-52
2021/03/22 12:15:59;;;;;;;5.20;2.90;;;11.40;53.50;;;;;;5071889;28;20677;-54
2021/03/22 12:18:28;;;;;;;6.90;3.60;;;11.40;53.70;;;;;;5073102;28;20609;-55
2021/03/22 12:20:55;;;;;;;4.67;3.63;;;11.30;54.30;;;;;;5071300;28;20653;-54
2021/03/22 12:23:23;;;;;;;4.80;3.17;;;11.30;54.60;;;;;;5072357;28;21192;-57
2021/03/22 12:25:49;;;;;;;5.97;2.90;;;11.30;54.90;;;;;;5076591;28;20665;-60
2021/03/22 12:28:18;;;;;;;5.93;2.50;;;11.30;54.70;;;;;;5072309;28;20636;-53
2021/03/22 12:30:45;;;;;;;4.57;2.33;;;11.30;54.50;;;;;;5071887;28;20656;-54
2021/03/22 12:33:19;;;;;;;4.40;2.90;;;11.30;54.40;;;;;;5080696;28;20625;-53
2021/03/22 12:35:46;;;;;;;2.20;2.00;;;11.40;54.50;;;;;;5094690;28;20676;-54
2021/03/22 12:38:15;;;;;;;4.53;2.70;;;11.40;53.90;;;;;;5102900;28;20729;-56
2021/03/22 12:40:42;;;;;;;2.70;2.40;;;11.50;53.80;;;;;;5071330;28;20688;-55
2021/03/22 12:43:11;;;;;;;9.23;3.43;;;11.60;53.30;;;;;;5071510;28;20640;-53
2021/03/22 12:45:39;;;;;;;3.50;2.07;;;11.60;53.50;;;;;;5076421;28;20689;-53
2021/03/22 12:48:07;;;;;;;6.30;3.07;;;11.70;52.50;;;;;;5070535;28;20656;-53
2021/03/22 12:50:35;;;;;;;6.30;2.57;;;11.80;52.40;;;;;;5070676;28;20769;-54
2021/03/22 12:53:02;;;;;;;4.00;2.83;;;11.90;51.90;;;;;;5071203;28;20625;-54
2021/03/22 12:55:30;;;;;;;4.33;2.60;;;12.00;51.70;;;;;;5070578;28;20727;-53
2021/03/22 12:57:58;;;;;;;7.20;2.33;;;12.10;51.20;;;;;;5070355;28;20662;-52
2021/03/22 13:00:25;;;;;;;3.63;1.70;;;12.10;50.70;;;;;;5070564;28;20669;-53
2021/03/22 13:02:53;;;;;;;6.13;3.07;;;12.20;50.80;;;;;;5071114;28;21239;-53
2021/03/22 13:05:22;;;;;;;2.43;2.10;;;12.20;50.50;;;;;;5080522;28;20670;-54
2021/03/22 13:07:49;;;;;;;3.30;2.20;;;12.20;50.30;;;;;;5091415;28;20654;-52
2021/03/22 13:10:16;;;;;;;29.47;25.00;;;12.20;50.30;;;;;;5086848;28;20627;-52